Time;durP1;ratioP1;P1;durP2;ratioP2;P2;SDS_P1;SDS_P2;PMS_P1;PMS_P2;Temp;Humidity;BMP_temperature;BMP_pressure;BME280_temperature;BME280_humidity;BME280_pressure;Samples;Min_cycle;Max_cycle;Signal;HPM_P1;HPM_P2
2023/06/07 00:01:12;;;;;;;;;;;;;;;21.98;60.12;101138.09;7399538;19;1718;-47
2023/06/07 00:03:41;;;;;;;;;;;;;;;22.04;59.90;101139.34;7397683;19;1847;-45
2023/06/07 00:06:10;;;;;;;;;;;;;;;21.90;59.90;101129.91;7400068;19;1002;-45
2023/06/07 00:08:38;;;;;;;;;;;;;;;21.92;60.08;101137.84;7395251;19;1921;-45
2023/06/07 00:11:09;;;;;;;;;;;;;;;21.91;59.84;101136.16;7399341;19;1793;-45
2023/06/07 00:13:37;;;;;;;;;;;;;;;21.96;60.00;101141.94;7398985;19;1577;-45
2023/06/07 00:16:06;;;;;;;;;;;;;;;21.97;59.63;101130.19;7399781;19;998;-45
2023/06/07 00:18:34;;;;;;;;;;;;;;;21.97;59.72;101127.50;7398520;19;1692;-45
2023/06/07 00:21:02;;;;;;;;;;;;;;;21.93;59.79;101129.63;7399227;19;1795;-45
2023/06/07 00:23:30;;;;;;;;;;;;;;;21.90;59.90;101134.44;7242623;19;2988430;-45
2023/06/07 00:25:59;;;;;;;;;;;;;;;21.89;59.88;101143.53;7400380;19;1470;-45
2023/06/07 00:28:30;;;;;;;;;;;;;;;21.82;60.11;101138.69;7399990;19;1698;-45
2023/06/07 00:30:58;;;;;;;;;;;;;;;21.89;59.73;101135.44;7399464;19;1396;-45
2023/06/07 00:33:26;;;;;;;;;;;;;;;21.83;59.96;101120.72;7400357;19;1735;-45
2023/06/07 00:35:55;;;;;;;;;;;;;;;21.81;59.79;101126.25;7401764;19;1007;-45
2023/06/07 00:38:25;;;;;;;;;;;;;;;21.81;60.13;101128.09;7399153;19;1582;-45
2023/06/07 00:40:53;;;;;;;;;;;;;;;21.85;59.86;101141.09;7399432;19;1438;-45
2023/06/07 00:43:21;;;;;;;;;;;;;;;21.79;59.89;101122.84;7397100;19;1865;-45
2023/06/07 00:45:52;;;;;;;;;;;;;;;21.83;60.04;101112.66;7398660;19;1885;-45
2023/06/07 00:48:21;;;;;;;;;;;;;;;21.82;59.69;101119.84;7400603;19;1392;-47
2023/06/07 00:50:49;;;;;;;;;;;;;;;21.84;59.76;101125.97;7399760;19;1726;-46
2023/06/07 00:53:18;;;;;;;;;;;;;;;21.78;59.73;101114.91;7399129;19;1818;-46
2023/06/07 00:55:47;;;;;;;;;;;;;;;21.80;60.16;101113.75;7398843;19;1738;-46
2023/06/07 00:58:16;;;;;;;;;;;;;;;21.84;59.72;101104.44;7400692;19;1106;-46
2023/06/07 01:00:44;;;;;;;;;;;;;;;21.83;59.86;101104.56;7400054;19;1861;-45
2023/06/07 01:03:15;;;;;;;;;;;;;;;21.81;59.66;101096.63;7398886;19;1860;-45
2023/06/07 01:05:44;;;;;;;;;;;;;;;21.88;59.63;101110.34;7399930;19;1519;-45
2023/06/07 01:08:13;;;;;;;;;;;;;;;21.84;59.64;101093.66;7399036;19;1050;-45
2023/06/07 01:10:41;;;;;;;;;;;;;;;21.82;59.92;101101.00;7400789;19;981;-45
2023/06/07 01:13:10;;;;;;;;;;;;;;;21.82;60.15;101108.25;7400217;19;1944;-45
2023/06/07 01:15:40;;;;;;;;;;;;;;;21.80;59.49;101097.59;7399039;19;1613;-46
2023/06/07 01:18:09;;;;;;;;;;;;;;;21.83;59.47;101091.94;7395625;19;1098;-45
2023/06/07 01:20:41;;;;;;;;;;;;;;;21.76;59.93;101098.91;7399968;19;1093;-45
2023/06/07 01:23:12;;;;;;;;;;;;;;;21.76;59.80;101096.22;7399178;19;1932;-45
2023/06/07 01:25:43;;;;;;;;;;;;;;;21.74;59.96;101095.50;7397778;19;1795;-46
2023/06/07 01:28:12;;;;;;;;;;;;;;;21.74;59.81;101095.50;7398323;19;2090;-45
2023/06/07 01:30:40;;;;;;;;;;;;;;;21.75;59.99;101094.53;7399102;19;1763;-45
2023/06/07 01:33:09;;;;;;;;;;;;;;;21.78;59.59;101088.00;7399761;19;1031;-45
2023/06/07 01:35:37;;;;;;;;;;;;;;;21.77;59.92;101095.22;7398665;19;1850;-45
2023/06/07 01:38:06;;;;;;;;;;;;;;;21.80;59.69;101096.78;7396041;19;1940;-46
2023/06/07 01:40:35;;;;;;;;;;;;;;;21.80;59.66;101086.00;7397106;19;1860;-45
2023/06/07 01:43:06;;;;;;;;;;;;;;;21.80;59.44;101091.38;7397441;19;1849;-46
2023/06/07 01:45:37;;;;;;;;;;;;;;;21.75;59.75;101110.69;7397198;19;1209;-45
2023/06/07 01:48:05;;;;;;;;;;;;;;;21.72;59.74;101089.41;7397701;19;1742;-45
2023/06/07 01:50:34;;;;;;;;;;;;;;;21.75;59.48;101082.91;7399055;19;1723;-45
2023/06/07 01:53:02;;;;;;;;;;;;;;;21.73;59.77;101085.75;7397818;19;1345;-45
2023/06/07 01:55:31;;;;;;;;;;;;;;;21.65;59.78;101081.09;7399122;19;948;-45
2023/06/07 01:58:03;;;;;;;;;;;;;;;21.72;59.64;101086.72;7397132;19;1534;-45
2023/06/07 02:00:35;;;;;;;;;;;;;;;21.72;59.78;101088.56;7397892;19;1522;-45
2023/06/07 02:03:07;;;;;;;;;;;;;;;21.78;59.23;101085.31;7396743;19;1852;-45
2023/06/07 02:05:36;;;;;;;;;;;;;;;21.69;59.53;101084.34;7396919;19;1594;-45
2023/06/07 02:08:09;;;;;;;;;;;;;;;21.74;59.76;101091.97;7398661;19;949;-45
2023/06/07 02:10:40;;;;;;;;;;;;;;;21.69;59.73;101089.72;7397809;19;1858;-45
2023/06/07 02:13:08;;;;;;;;;;;;;;;21.70;59.68;101088.72;7397782;19;1621;-45
2023/06/07 02:15:39;;;;;;;;;;;;;;;21.79;59.35;101101.31;7396924;19;1948;-45
2023/06/07 02:18:08;;;;;;;;;;;;;;;21.74;59.62;101090.13;7397030;19;1755;-45
2023/06/07 02:20:36;;;;;;;;;;;;;;;21.79;59.61;101101.31;7397013;19;1411;-45
2023/06/07 02:23:04;;;;;;;;;;;;;;;21.76;59.60;101101.59;7396244;19;1845;-45
2023/06/07 02:25:34;;;;;;;;;;;;;;;21.74;59.41;101100.03;7395063;19;1833;-45
2023/06/07 02:28:02;;;;;;;;;;;;;;;21.75;59.17;101101.75;7395420;19;1463;-45
2023/06/07 02:30:30;;;;;;;;;;;;;;;21.73;59.55;101103.75;7395647;19;1747;-45
2023/06/07 02:33:01;;;;;;;;;;;;;;;21.73;59.21;101095.69;7398433;19;1019;-45
2023/06/07 02:35:30;;;;;;;;;;;;;;;21.67;59.46;101097.09;7396763;19;1862;-45
2023/06/07 02:37:58;;;;;;;;;;;;;;;21.66;59.35;101098.06;7397003;19;1820;-45
2023/06/07 02:40:26;;;;;;;;;;;;;;;21.71;59.35;101097.66;7397162;19;1510;-45
2023/06/07 02:42:55;;;;;;;;;;;;;;;21.65;59.22;101088.31;7396142;19;1861;-45
2023/06/07 02:45:23;;;;;;;;;;;;;;;21.65;59.03;101096.41;7394249;19;1565;-45
2023/06/07 02:47:53;;;;;;;;;;;;;;;21.68;59.06;101092.56;7396778;19;1817;-45
2023/06/07 02:50:24;;;;;;;;;;;;;;;21.61;59.49;101097.69;7396236;19;1399;-45
2023/06/07 02:52:53;;;;;;;;;;;;;;;21.72;59.36;101092.09;7396781;19;1344;-45
2023/06/07 02:55:21;;;;;;;;;;;;;;;21.65;59.24;101091.00;7396554;19;1847;-45
2023/06/07 02:57:50;;;;;;;;;;;;;;;21.65;59.52;101101.78;7396300;19;1937;-45
2023/06/07 03:00:19;;;;;;;;;;;;;;;21.63;59.77;101095.69;7396009;19;1936;-45
2023/06/07 03:02:47;;;;;;;;;;;;;;;21.66;59.52;101100.78;7395699;19;1840;-45
2023/06/07 03:05:16;;;;;;;;;;;;;;;21.63;59.54;101096.53;7395862;19;1678;-47
2023/06/07 03:07:46;;;;;;;;;;;;;;;21.65;59.77;101093.69;7396721;19;1013;-45
2023/06/07 03:10:15;;;;;;;;;;;;;;;21.71;59.30;101087.72;7395709;19;1522;-46
2023/06/07 03:12:43;;;;;;;;;;;;;;;21.71;59.29;101092.28;7396190;19;1576;-46
2023/06/07 03:15:12;;;;;;;;;;;;;;;21.68;59.45;101103.31;7395126;19;1727;-46
2023/06/07 03:17:42;;;;;;;;;;;;;;;21.67;59.32;101131.25;7395543;19;1731;-45
2023/06/07 03:20:11;;;;;;;;;;;;;;;21.68;59.53;101101.47;7395430;19;1719;-45
2023/06/07 03:22:40;;;;;;;;;;;;;;;21.69;59.39;101092.41;7394890;19;1826;-45
2023/06/07 03:25:11;;;;;;;;;;;;;;;21.67;59.65;101091.72;7392323;19;1821;-46
2023/06/07 03:27:39;;;;;;;;;;;;;;;21.71;59.50;101105.75;7395372;19;1801;-45
2023/06/07 03:30:09;;;;;;;;;;;;;;;21.63;59.69;101091.16;7395671;19;1116;-46
2023/06/07 03:32:37;;;;;;;;;;;;;;;21.77;59.11;101097.06;7402657;19;1861;-46
2023/06/07 03:35:05;;;;;;;;;;;;;;;21.78;59.51;101113.06;7402092;19;1862;-45
2023/06/07 03:37:34;;;;;;;;;;;;;;;21.70;59.72;101096.78;7402585;19;1830;-46
2023/06/07 03:40:03;;;;;;;;;;;;;;;21.72;59.62;101102.88;7401172;19;1424;-46
2023/06/07 03:42:34;;;;;;;;;;;;;;;21.75;59.76;101099.91;7402540;19;1451;-45
2023/06/07 03:45:02;;;;;;;;;;;;;;;21.81;59.05;101103.88;7399391;19;1858;-45
2023/06/07 03:47:30;;;;;;;;;;;;;;;21.80;59.56;101097.59;7403887;19;1007;-46
2023/06/07 03:49:59;;;;;;;;;;;;;;;21.86;59.37;101101.56;7402214;19;1506;-46
2023/06/07 03:52:27;;;;;;;;;;;;;;;21.91;59.09;101103.84;7402664;19;1972;-46
2023/06/07 03:54:55;;;;;;;;;;;;;;;21.90;59.19;101113.75;7401591;19;1862;-46
2023/06/07 03:57:24;;;;;;;;;;;;;;;21.96;59.15;101115.00;7402184;19;1395;-46
2023/06/07 03:59:55;;;;;;;;;;;;;;;21.96;59.38;101112.31;7401181;19;1826;-47
2023/06/07 04:02:23;;;;;;;;;;;;;;;22.05;58.98;101116.81;7401614;19;1811;-46
2023/06/07 04:04:52;;;;;;;;;;;;;;;22.05;58.84;101097.97;7399133;19;1846;-46
2023/06/07 04:07:20;;;;;;;;;;;;;;;22.19;58.34;101108.25;7401029;19;948;-46
2023/06/07 04:09:48;;;;;;;;;;;;;;;22.11;58.47;101105.47;7399548;19;1865;-46
2023/06/07 04:12:17;;;;;;;;;;;;;;;22.12;58.90;101106.31;7401570;19;1735;-46
2023/06/07 04:14:45;;;;;;;;;;;;;;;22.18;58.70;101111.97;7399995;19;1711;-46
2023/06/07 04:17:16;;;;;;;;;;;;;;;22.08;59.04;101119.22;7400422;19;1804;-45
2023/06/07 04:19:44;;;;;;;;;;;;;;;22.16;58.81;101107.69;7401102;19;1781;-46
2023/06/07 04:22:12;;;;;;;;;;;;;;;22.26;58.71;101110.38;7402641;19;1011;-47
2023/06/07 04:24:41;;;;;;;;;;;;;;;22.24;58.40;101116.78;7397853;19;1854;-46
2023/06/07 04:27:11;;;;;;;;;;;;;;;22.18;58.79;101111.09;7400502;19;1764;-46
2023/06/07 04:29:40;;;;;;;;;;;;;;;22.27;58.85;101117.50;7397337;19;1802;-46
2023/06/07 04:32:09;;;;;;;;;;;;;;;22.27;59.15;101109.41;7399978;19;1007;-46
2023/06/07 04:34:41;;;;;;;;;;;;;;;22.34;58.78;101123.97;7399750;19;1948;-45
2023/06/07 04:37:10;;;;;;;;;;;;;;;22.30;59.11;101126.09;7400869;19;1771;-46
2023/06/07 04:39:39;;;;;;;;;;;;;;;22.35;59.05;101101.41;7401779;19;1023;-46
2023/06/07 04:42:09;;;;;;;;;;;;;;;22.39;59.08;101113.59;7398770;19;1129;-46
2023/06/07 04:44:37;;;;;;;;;;;;;;;22.40;58.87;101107.19;7398924;19;1857;-45
2023/06/07 04:47:08;;;;;;;;;;;;;;;22.48;58.83;101109.97;7397862;19;1614;-46
2023/06/07 04:49:38;;;;;;;;;;;;;;;22.50;58.55;101116.09;7396654;19;1517;-46
2023/06/07 04:52:12;;;;;;;;;;;;;;;22.54;58.69;101106.72;7399550;19;1485;-46
2023/06/07 04:54:40;;;;;;;;;;;;;;;22.53;58.64;101099.63;7400086;19;1279;-46
2023/06/07 04:57:10;;;;;;;;;;;;;;;22.51;59.14;101101.63;7398877;19;1969;-46
2023/06/07 04:59:42;;;;;;;;;;;;;;;22.10;60.62;101102.91;7398661;19;1389;-46
2023/06/07 05:02:10;;;;;;;;;;;;;;;21.83;60.20;101107.25;7398771;19;1570;-46
2023/06/07 05:04:38;;;;;;;;;;;;;;;21.75;59.66;101116.06;7397326;19;1859;-47
2023/06/07 05:07:11;;;;;;;;;;;;;;;21.72;59.67;101121.72;7400819;19;1125;-46
2023/06/07 05:09:39;;;;;;;;;;;;;;;21.73;59.55;101104.59;7398070;19;1865;-46
2023/06/07 05:12:08;;;;;;;;;;;;;;;21.78;59.79;101115.75;7399077;19;1806;-46
2023/06/07 05:14:36;;;;;;;;;;;;;;;21.83;59.25;101118.88;7398592;19;1802;-46
2023/06/07 05:17:05;;;;;;;;;;;;;;;21.82;59.26;101122.53;7398511;19;1130;-46
2023/06/07 05:19:33;;;;;;;;;;;;;;;21.83;58.77;101113.47;7399041;19;1552;-45
2023/06/07 05:22:02;;;;;;;;;;;;;;;21.80;58.91;101113.75;7398619;19;1759;-46
2023/06/07 05:24:33;;;;;;;;;;;;;;;21.87;58.52;101129.38;7397046;19;1838;-46
2023/06/07 05:27:01;;;;;;;;;;;;;;;21.92;58.52;101122.53;7399080;19;1787;-46
2023/06/07 05:29:29;;;;;;;;;;;;;;;21.98;58.23;101110.31;7399689;19;1011;-46
2023/06/07 05:31:57;;;;;;;;;;;;;;;21.96;58.29;101128.47;7397062;19;1593;-46
2023/06/07 05:34:26;;;;;;;;;;;;;;;21.94;58.28;101117.00;7398613;19;1735;-46
2023/06/07 05:36:55;;;;;;;;;;;;;;;21.91;58.32;101114.63;7399542;19;1048;-46
2023/06/07 05:39:23;;;;;;;;;;;;;;;22.00;58.02;101127.19;7399033;19;1846;-46
2023/06/07 05:41:54;;;;;;;;;;;;;;;21.89;57.80;101112.06;7396311;19;1491;-46
2023/06/07 05:44:22;;;;;;;;;;;;;;;21.97;57.73;101133.72;7397906;19;1865;-46
2023/06/07 05:46:51;;;;;;;;;;;;;;;22.07;57.03;101117.53;7398223;19;1388;-45
2023/06/07 05:49:19;;;;;;;;;;;;;;;22.12;57.28;101117.06;7397341;19;1463;-46
2023/06/07 05:51:48;;;;;;;;;;;;;;;22.20;56.97;101109.97;7397311;19;1535;-46
2023/06/07 05:54:16;;;;;;;;;;;;;;;22.16;56.86;101116.66;7396386;19;1653;-45
2023/06/07 05:56:44;;;;;;;;;;;;;;;22.23;56.46;101096.19;7396863;19;1638;-45
2023/06/07 05:59:15;;;;;;;;;;;;;;;22.38;56.36;101110.06;7396064;19;1516;-45
2023/06/07 06:01:44;;;;;;;;;;;;;;;22.19;56.46;101116.34;7397628;19;1291;-45
2023/06/07 06:04:12;;;;;;;;;;;;;;;22.56;55.62;101120.88;7394683;19;1854;-45
2023/06/07 06:06:41;;;;;;;;;;;;;;;22.51;56.55;101117.78;7397706;19;1552;-46
2023/06/07 06:09:09;;;;;;;;;;;;;;;22.62;56.41;101120.28;7395958;19;1411;-45
2023/06/07 06:11:37;;;;;;;;;;;;;;;22.56;54.75;101109.22;7397148;19;1706;-46
2023/06/07 06:14:06;;;;;;;;;;;;;;;22.50;56.32;101120.63;7395962;19;1704;-45
2023/06/07 06:16:37;;;;;;;;;;;;;;;22.45;57.49;101118.38;7397504;19;1749;-45
2023/06/07 06:19:05;;;;;;;;;;;;;;;22.33;58.74;101124.97;7396697;19;1730;-46
2023/06/07 06:21:33;;;;;;;;;;;;;;;22.35;58.02;101145.38;7395042;19;1098;-45
2023/06/07 06:24:03;;;;;;;;;;;;;;;22.28;56.30;101122.69;7391306;19;1952;-45
2023/06/07 06:26:31;;;;;;;;;;;;;;;22.20;58.22;101120.75;7391732;19;1585;-45
2023/06/07 06:29:00;;;;;;;;;;;;;;;22.15;57.39;101136.50;7391178;19;1953;-46
2023/06/07 06:31:28;;;;;;;;;;;;;;;22.13;58.38;101130.41;7392193;19;1353;-45
2023/06/07 06:33:59;;;;;;;;;;;;;;;22.23;57.81;101139.28;7392984;19;1747;-45
2023/06/07 06:36:28;;;;;;;;;;;;;;;22.16;57.65;101135.50;7392467;19;1408;-45
2023/06/07 06:38:57;;;;;;;;;;;;;;;22.27;57.95;101125.56;7392620;19;1699;-45
2023/06/07 06:41:25;;;;;;;;;;;;;;;22.16;57.22;101151.66;7393006;19;1011;-45
2023/06/07 06:43:53;;;;;;;;;;;;;;;22.40;56.15;101137.72;7392743;19;1846;-45
2023/06/07 06:46:22;;;;;;;;;;;;;;;22.53;56.14;101126.56;7392151;19;1929;-46
2023/06/07 06:48:50;;;;;;;;;;;;;;;22.41;56.08;101131.31;7392264;19;1539;-45
2023/06/07 06:51:21;;;;;;;;;;;;;;;22.26;56.77;101137.31;7391935;19;1401;-45
2023/06/07 06:53:49;;;;;;;;;;;;;;;22.13;59.44;101125.00;7391697;19;1419;-45
2023/06/07 06:56:18;;;;;;;;;;;;;;;22.13;58.80;101134.94;7392443;19;1803;-45
2023/06/07 06:58:46;;;;;;;;;;;;;;;22.28;58.31;101135.34;7391905;19;1812;-45
2023/06/07 07:01:15;;;;;;;;;;;;;;;22.30;57.59;101136.88;7392440;19;1400;-45
2023/06/07 07:03:43;;;;;;;;;;;;;;;22.47;56.99;101131.72;7395159;19;1727;-46
2023/06/07 07:06:12;;;;;;;;;;;;;;;22.49;56.69;101135.94;7397382;19;1845;-45
2023/06/07 07:08:42;;;;;;;;;;;;;;;22.52;57.76;101137.50;7403219;19;1482;-44
2023/06/07 07:11:11;;;;;;;;;;;;;;;22.69;56.32;101135.84;7403971;19;1707;-45
2023/06/07 07:13:39;;;;;;;;;;;;;;;22.64;57.60;101120.97;7405234;19;1053;-45
2023/06/07 07:16:07;;;;;;;;;;;;;;;22.87;58.14;101122.41;7403925;19;1928;-44
2023/06/07 07:18:36;;;;;;;;;;;;;;;22.73;57.46;101140.78;7403360;19;1802;-44
2023/06/07 07:21:04;;;;;;;;;;;;;;;22.66;56.33;101137.00;7402085;19;1522;-44
2023/06/07 07:23:32;;;;;;;;;;;;;;;22.88;55.36;101130.34;7401500;19;1380;-45
2023/06/07 07:26:03;;;;;;;;;;;;;;;22.72;56.59;101128.31;7399973;19;1843;-44
2023/06/07 07:28:32;;;;;;;;;;;;;;;22.55;57.19;101140.75;7402226;19;1614;-45
2023/06/07 07:31:00;;;;;;;;;;;;;;;22.45;57.37;101142.63;7399161;19;1527;-44
2023/06/07 07:33:28;;;;;;;;;;;;;;;22.48;57.24;101142.31;7402439;19;1510;-44
2023/06/07 07:36:00;;;;;;;;;;;;;;;22.67;56.99;101137.84;7403210;19;1398;-44
2023/06/07 07:38:32;;;;;;;;;;;;;;;22.91;56.24;101127.31;7399953;19;1443;-44
2023/06/07 07:41:03;;;;;;;;;;;;;;;22.82;56.80;101139.88;7401135;19;1544;-44
2023/06/07 07:43:32;;;;;;;;;;;;;;;22.97;56.57;101137.50;7398863;19;1391;-44
2023/06/07 07:46:00;;;;;;;;;;;;;;;22.81;56.99;101129.25;7397695;19;1871;-44
2023/06/07 07:48:28;;;;;;;;;;;;;;;22.68;57.60;101134.13;7402801;19;1804;-44
2023/06/07 07:50:57;;;;;;;;;;;;;;;22.90;56.81;101117.56;7402065;19;1569;-44
2023/06/07 07:53:25;;;;;;;;;;;;;;;23.01;56.80;101135.34;7400210;19;1345;-44
2023/06/07 07:55:54;;;;;;;;;;;;;;;22.78;56.65;101141.19;7401663;19;1396;-45
2023/06/07 07:58:25;;;;;;;;;;;;;;;22.60;57.46;101141.16;7400716;19;1333;-44
2023/06/07 08:00:53;;;;;;;;;;;;;;;22.66;57.13;101134.31;7402466;19;1300;-44
2023/06/07 08:03:22;;;;;;;;;;;;;;;22.71;56.88;101140.09;7400744;19;1612;-44
2023/06/07 08:05:50;;;;;;;;;;;;;;;22.66;57.22;101131.63;7399955;19;1855;-44
2023/06/07 08:08:19;;;;;;;;;;;;;;;22.55;57.46;101129.97;7401269;19;1328;-44
2023/06/07 08:10:47;;;;;;;;;;;;;;;22.44;57.82;101143.63;7400381;19;1980;-44
2023/06/07 08:13:16;;;;;;;;;;;;;;;22.44;57.76;101138.22;7400071;19;1525;-44
2023/06/07 08:15:48;;;;;;;;;;;;;;;22.32;57.75;101139.44;7399230;19;1527;-45
2023/06/07 08:18:18;;;;;;;;;;;;;;;22.36;57.61;101143.53;7399753;19;1507;-44
2023/06/07 08:20:46;;;;;;;;;;;;;;;22.38;57.77;101138.84;7401495;19;1774;-44
2023/06/07 08:23:15;;;;;;;;;;;;;;;22.40;57.42;101137.72;7400147;19;1726;-45
2023/06/07 08:25:43;;;;;;;;;;;;;;;22.40;58.10;101128.75;7398771;19;1859;-44
2023/06/07 08:28:11;;;;;;;;;;;;;;;22.40;58.19;101124.22;7401247;19;1947;-45
2023/06/07 08:30:40;;;;;;;;;;;;;;;22.34;58.18;101115.88;7401677;19;1668;-44
2023/06/07 08:33:11;;;;;;;;;;;;;;;22.40;58.19;101126.06;7400125;19;1035;-44
2023/06/07 08:35:39;;;;;;;;;;;;;;;22.37;58.03;101110.19;7401083;19;1760;-44
2023/06/07 08:38:07;;;;;;;;;;;;;;;22.42;58.41;101126.75;7400851;19;1715;-44
2023/06/07 08:40:37;;;;;;;;;;;;;;;22.40;58.34;101123.38;7399061;19;1368;-44
2023/06/07 08:43:05;;;;;;;;;;;;;;;;;;7400695;19;1839;-44
2023/06/07 08:45:33;;;;;;;;;;;;;;;22.35;58.49;101112.19;7399891;19;1860;-44
2023/06/07 08:48:07;;;;;;;;;;;;;;;22.40;58.40;101132.31;7396920;19;1932;-44
2023/06/07 08:50:38;;;;;;;;;;;;;;;22.35;58.38;101122.97;7399274;19;1930;-44
2023/06/07 08:53:09;;;;;;;;;;;;;;;22.36;58.57;101106.66;7400514;19;1759;-44
2023/06/07 08:55:37;;;;;;;;;;;;;;;;;;7400083;19;1439;-44
2023/06/07 08:58:06;;;;;;;;;;;;;;;22.40;58.77;101123.38;7400945;19;1240;-44
2023/06/07 09:00:34;;;;;;;;;;;;;;;;;;7400104;19;1943;-44
2023/06/07 09:03:02;;;;;;;;;;;;;;;22.40;58.73;101120.66;7398942;19;1857;-44
2023/06/07 09:05:30;;;;;;;;;;;;;;;22.37;58.69;101120.97;7397138;19;1873;-44
2023/06/07 09:08:02;;;;;;;;;;;;;;;22.39;58.65;101132.47;7398301;19;1399;-44
2023/06/07 09:10:31;;;;;;;;;;;;;;;22.37;58.64;101123.69;7399958;19;1707;-44
2023/06/07 09:12:59;;;;;;;;;;;;;;;22.36;58.67;101103.09;7399024;19;1752;-44
2023/06/07 09:15:27;;;;;;;;;;;;;;;22.34;58.95;101105.09;7398963;19;1809;-44
2023/06/07 09:17:58;;;;;;;;;;;;;;;22.32;59.06;101118.75;7399403;19;1486;-44
2023/06/07 09:20:27;;;;;;;;;;;;;;;22.36;58.77;101106.66;7399763;19;1857;-44
2023/06/07 09:23:08;;;;;;;;;;;;;;;22.37;58.96;101110.19;7399809;19;1145;-44
2023/06/07 09:25:37;;;;;;;;;;;;;;;22.32;58.76;101104.41;7397835;19;1844;-44
2023/06/07 09:28:06;;;;;;;;;;;;;;;22.30;59.09;101098.31;7397353;19;1609;-44
2023/06/07 09:30:34;;;;;;;;;;;;;;;22.28;59.28;101101.16;7398838;19;1980;-44
2023/06/07 09:33:03;;;;;;;;;;;;;;;22.29;59.27;101115.50;7394688;19;1554;-44
2023/06/07 09:35:31;;;;;;;;;;;;;;;22.29;59.16;101102.88;7399942;19;1070;-44
2023/06/07 09:38:00;;;;;;;;;;;;;;;22.34;59.14;101103.28;7396277;19;1585;-44
2023/06/07 09:40:31;;;;;;;;;;;;;;;22.36;59.08;101108.50;7399280;19;1726;-45
2023/06/07 09:43:00;;;;;;;;;;;;;;;22.35;59.26;101104.97;7398868;19;1778;-44
2023/06/07 09:45:30;;;;;;;;;;;;;;;22.33;59.20;101103.41;7397599;19;1853;-44
2023/06/07 09:48:06;;;;;;;;;;;;;;;22.31;59.39;101106.25;7399046;19;1794;-44
2023/06/07 09:50:34;;;;;;;;;;;;;;;22.32;59.44;101109.78;7399198;19;1720;-44
2023/06/07 09:53:03;;;;;;;;;;;;;;;22.31;59.35;101100.03;7398766;19;1043;-44
2023/06/07 09:55:34;;;;;;;;;;;;;;;22.31;59.51;101100.03;7399506;19;948;-44
2023/06/07 09:58:02;;;;;;;;;;;;;;;22.30;59.35;101103.69;7398110;19;1581;-44
2023/06/07 10:00:31;;;;;;;;;;;;;;;22.30;59.63;101109.94;7398291;19;1815;-44
2023/06/07 10:03:07;;;;;;;;;;;;;;;22.26;59.56;101099.63;7394403;19;999;-44
2023/06/07 10:05:36;;;;;;;;;;;;;;;22.27;59.81;101093.25;7397928;19;1847;-44
2023/06/07 10:08:05;;;;;;;;;;;;;;;22.26;59.57;101094.22;7395249;19;1613;-45
2023/06/07 10:10:37;;;;;;;;;;;;;;;22.22;59.77;101113.38;7396039;19;1969;-44
2023/06/07 10:13:06;;;;;;;;;;;;;;;22.43;59.08;101104.22;7395854;19;1538;-44
2023/06/07 10:15:36;;;;;;;;;;;;;;;22.22;59.31;101089.13;7396415;19;1387;-44
2023/06/07 10:18:09;;;;;;;;;;;;;;;22.30;59.31;101087.53;7395797;19;1660;-44
2023/06/07 10:20:38;;;;;;;;;;;;;;;22.33;59.17;101081.88;7397661;19;1316;-44
2023/06/07 10:23:06;;;;;;;;;;;;;;;22.32;58.87;101083.72;7397839;19;1569;-44
2023/06/07 10:25:41;;;;;;;;;;;;;;;22.37;58.86;101085.94;7395691;19;1866;-44
2023/06/07 10:28:18;;;;;;;;;;;;;;;22.33;59.06;101084.56;7398446;19;1113;-45
2023/06/07 10:30:50;;;;;;;;;;;;;;;22.35;59.14;101090.66;7397558;19;1874;-44
2023/06/07 10:33:19;;;;;;;;;;;;;;;22.37;59.17;101104.81;7393155;19;1764;-45
2023/06/07 10:35:48;;;;;;;;;;;;;;;22.35;59.02;101085.25;7398166;19;1202;-44
2023/06/07 10:38:18;;;;;;;;;;;;;;;22.35;59.28;101079.88;7396459;19;1502;-44
2023/06/07 10:40:49;;;;;;;;;;;;;;;22.35;59.04;101075.31;7401257;19;1711;-44
2023/06/07 10:43:17;;;;;;;;;;;;;;;22.35;59.21;101069.09;7402775;19;1362;-44
2023/06/07 10:45:46;;;;;;;;;;;;;;;22.32;59.19;101067.56;7399862;19;1857;-44
2023/06/07 10:48:34;;;;;;;;;;;;;;;22.57;58.63;101060.56;6880236;19;10000622;-44
2023/06/07 10:51:03;;;;;;;;;;;;;;;22.36;58.93;101054.59;7397559;19;1510;-44
2023/06/07 10:53:48;;;;;;;;;;;;;;;22.26;59.09;101065.44;7396534;19;1515;-44
2023/06/07 10:56:32;;;;;;;;;;;;;;;22.35;59.17;101069.94;7396705;19;1755;-45
2023/06/07 10:59:01;;;;;;;;;;;;;;;22.25;59.40;101074.53;7394984;19;1429;-44
2023/06/07 11:01:30;;;;;;;;;;;;;;;22.28;59.76;101070.69;7396543;19;1564;-44
2023/06/07 11:03:58;;;;;;;;;;;;;;;22.28;59.75;101076.91;7396096;19;1862;-44
2023/06/07 11:06:26;;;;;;;;;;;;;;;22.27;59.73;101061.75;7396512;19;1857;-44
2023/06/07 11:09:17;;;;;;;;;;;;;;;22.26;59.95;101059.19;7395712;19;1790;-44
2023/06/07 11:11:48;;;;;;;;;;;;;;;22.34;59.56;101059.28;7395293;19;1841;-45
2023/06/07 11:14:16;;;;;;;;;;;;;;;22.31;59.77;101057.75;7394030;19;1708;-44
2023/06/07 11:16:44;;;;;;;;;;;;;;;22.33;59.65;101052.22;7396009;19;1544;-44
2023/06/07 11:19:15;;;;;;;;;;;;;;;22.31;60.02;101048.84;7396282;19;1415;-44
2023/06/07 11:22:00;;;;;;;;;;;;;;;22.22;60.17;101046.03;7394386;19;1557;-44
2023/06/07 11:24:28;;;;;;;;;;;;;;;22.19;60.21;101035.53;7392578;19;1729;-44
2023/06/07 11:26:59;;;;;;;;;;;;;;;22.15;60.38;101028.75;7394074;19;1857;-45
2023/06/07 11:29:27;;;;;;;;;;;;;;;22.18;60.43;101041.06;7396358;19;1701;-44
2023/06/07 11:32:00;;;;;;;;;;;;;;;22.12;60.20;101029.03;7396250;19;1705;-44
2023/06/07 11:34:29;;;;;;;;;;;;;;;22.12;60.29;101030.88;7400455;19;1472;-44
2023/06/07 11:37:10;;;;;;;;;;;;;;;22.12;60.49;101029.03;7400454;19;1018;-44
2023/06/07 11:39:39;;;;;;;;;;;;;;;22.56;59.24;101023.84;7402747;19;1317;-44
2023/06/07 11:42:10;;;;;;;;;;;;;;;22.75;58.63;101027.41;7402992;19;1608;-44
2023/06/07 11:44:38;;;;;;;;;;;;;;;22.87;58.54;101022.63;7402039;19;1960;-44
2023/06/07 11:47:10;;;;;;;;;;;;;;;22.94;58.15;101021.84;7399398;19;1956;-44
2023/06/07 11:49:41;;;;;;;;;;;;;;;22.97;57.85;101026.91;7401890;19;1588;-45
2023/06/07 11:52:10;;;;;;;;;;;;;;;22.91;57.93;101027.53;7401206;19;1723;-44
2023/06/07 11:54:42;;;;;;;;;;;;;;;22.91;58.13;101027.53;7401687;19;1443;-44
2023/06/07 11:57:13;;;;;;;;;;;;;;;22.88;58.46;101027.00;7402035;19;1459;-44
2023/06/07 11:59:43;;;;;;;;;;;;;;;22.80;58.54;101025.94;7401616;19;2037;-44
2023/06/07 12:02:12;;;;;;;;;;;;;;;22.58;58.90;101015.59;7402099;19;2013;-45
2023/06/07 12:04:42;;;;;;;;;;;;;;;22.62;58.65;101007.06;7401183;19;1441;-44
2023/06/07 12:07:20;;;;;;;;;;;;;;;22.43;59.57;101007.19;7399373;19;1843;-44
2023/06/07 12:09:51;;;;;;;;;;;;;;;22.58;59.17;101011.06;7401471;19;1616;-44
2023/06/07 12:12:24;;;;;;;;;;;;;;;22.66;59.06;101009.44;7402206;19;1082;-44
2023/06/07 12:15:01;;;;;;;;;;;;;;;22.49;59.51;101006.59;7401809;19;1029;-44
2023/06/07 12:17:34;;;;;;;;;;;;;;;22.45;59.54;101015.97;7401107;19;1510;-44
2023/06/07 12:20:12;;;;;;;;;;;;;;;22.34;59.81;101002.72;7400851;19;1940;-43
2023/06/07 12:22:40;;;;;;;;;;;;;;;22.27;60.07;100997.09;7400792;19;1640;-45
2023/06/07 12:25:10;;;;;;;;;;;;;;;22.53;59.67;100990.97;7398398;19;1538;-44
2023/06/07 12:27:41;;;;;;;;;;;;;;;22.53;59.20;100991.81;7398149;19;1857;-44
2023/06/07 12:30:10;;;;;;;;;;;;;;;22.53;60.23;100997.19;7400845;19;1809;-44
2023/06/07 12:32:38;;;;;;;;;;;;;;;22.62;60.23;100987.34;7400144;19;1348;-44
2023/06/07 12:35:07;;;;;;;;;;;;;;;22.51;60.39;100999.19;7399207;19;1920;-44
2023/06/07 12:37:37;;;;;;;;;;;;;;;22.51;60.46;100990.28;7398582;19;1290;-44
2023/06/07 12:40:05;;;;;;;;;;;;;;;22.34;60.98;100981.16;7399705;19;1536;-44
2023/06/07 12:42:34;;;;;;;;;;;;;;;22.36;61.12;100984.56;7398506;19;1386;-44
2023/06/07 12:45:05;;;;;;;;;;;;;;;22.47;60.53;100981.66;7394805;19;1582;-48
2023/06/07 12:47:33;;;;;;;;;;;;;;;22.44;60.57;100968.47;7397596;19;1872;-48
2023/06/07 12:50:02;;;;;;;;;;;;;;;22.57;60.86;100982.41;7399455;19;2080;-49
2023/06/07 12:52:30;;;;;;;;;;;;;;;22.66;60.38;100980.66;7398577;19;1321;-48
2023/06/07 12:54:58;;;;;;;;;;;;;;;22.68;60.23;100969.69;7399323;19;1825;-48
2023/06/07 12:57:26;;;;;;;;;;;;;;;22.65;60.42;100968.16;7398424;19;1135;-48
2023/06/07 12:59:54;;;;;;;;;;;;;;;22.64;60.41;100961.94;7398994;19;1575;-48